Sun, 17 Oct 2021 00:25:51 UTC

Information for RPM brotli-1.0.7-14.eln103.armv7hl.rpm

ID22840314
Namebrotli
Version1.0.7
Release14.eln103
Epoch
Archarmv7hl
SummaryLossless compression algorithm
DescriptionBrotli is a generic-purpose lossless compression algorithm that compresses data using a combination of a modern variant of the LZ77 algorithm, Huffman coding and 2nd order context modeling, with a compression ratio comparable to the best currently available general-purpose compression methods. It is similar in speed with deflate but offers more dense compression.
Build Time2020-08-14 03:47:28 GMT
Size317,892
36bff807c721337327cc01e5861e2fc5
LicenseMIT
Buildrooteln-build-22187699-1884979
Provides
brotli = 1.0.7-14.eln103
brotli(armv7hl-32) = 1.0.7-14.eln103
Obsoletes No Obsoletes
Conflicts No Conflicts
Requires
ld-linux-armhf.so.3
ld-linux-armhf.so.3(GLIBC_2.4)
libbrotli(armv7hl-32) = 1.0.7-14.eln103
libc.so.6
libc.so.6(GLIBC_2.4)
libgcc_s.so.1
libgcc_s.so.1(GCC_3.5)
libm.so.6
libm.so.6(GLIBC_2.29)
rpmlib(CompressedFileNames) <= 3.0.4-1
rpmlib(FileDigests) <= 4.6.0-1
rpmlib(PayloadFilesHavePrefix) <= 4.0-1
rpmlib(PayloadIsZstd) <= 5.4.18-1
rtld(GNU_HASH)
Recommends No Recommends
Suggests No Suggests
Supplements No Supplements
Enhances No Enhances
Files
1 through 4 of 4
Name ascending sort Size
/usr/bin/brotli718,448
/usr/lib/.build-id0
/usr/lib/.build-id/630
/usr/lib/.build-id/63/84b15421db9722d4b3f418554773dbddded00226
Component of
Page:
1 through 50 of 339 >>>
Buildroot descending sort Created State
eln-build-23111216-2170526 2020-09-30 17:14:40 expired
eln-build-23110114-2169912 2020-09-30 15:12:01 expired
eln-build-23106946-2168636 2020-09-30 09:49:08 expired
eln-build-23092118-2166788 2020-09-29 20:40:31 expired
eln-build-23090941-2166062 2020-09-29 18:48:43 expired
eln-build-23089786-2165413 2020-09-29 16:22:39 expired
eln-build-23088558-2165063 2020-09-29 14:40:45 expired
eln-build-23088118-2164493 2020-09-29 13:38:15 expired
eln-build-23088059-2164493 2020-09-29 13:29:00 expired
eln-build-23087829-2164363 2020-09-29 12:50:44 expired
eln-build-23087677-2164200 2020-09-29 12:30:01 expired
eln-build-23087283-2163999 2020-09-29 11:37:10 expired
eln-build-23086856-2163743 2020-09-29 10:49:26 expired
eln-build-23081956-2161781 2020-09-29 02:42:01 expired
eln-build-23081783-2161540 2020-09-29 02:11:07 expired
eln-build-23075407-2161267 2020-09-28 18:38:51 expired
eln-build-23074257-2161267 2020-09-28 15:56:53 expired
eln-build-23073158-2160946 2020-09-28 13:24:42 expired
eln-build-23072392-2160788 2020-09-28 11:53:31 expired
eln-build-23070784-2160053 2020-09-28 08:32:34 expired
eln-build-23061933-2157806 2020-09-27 19:21:16 expired
eln-build-23061798-2157764 2020-09-27 19:08:18 expired
eln-build-23014156-2149102 2020-09-25 17:43:54 expired
eln-build-23007524-2146934 2020-09-25 09:32:00 expired
eln-build-23002520-2145909 2020-09-25 05:11:47 expired
eln-build-22999969-2145798 2020-09-25 03:12:49 expired
eln-build-22999022-2145768 2020-09-25 02:41:21 expired
eln-build-22997390-2145679 2020-09-25 01:41:58 expired
eln-build-22997384-2145679 2020-09-25 01:41:54 expired
eln-build-22996746-2145628 2020-09-25 01:12:12 expired
eln-build-22995310-2145534 2020-09-25 00:10:25 expired
eln-build-22992272-2144880 2020-09-24 21:13:18 expired
eln-build-22987771-2142657 2020-09-24 14:42:59 expired
eln-build-22980741-2139491 2020-09-24 01:57:12 expired
eln-build-22970544-2137071 2020-09-23 14:26:16 expired
eln-build-22970537-2137071 2020-09-23 14:26:14 expired
eln-build-22967957-2135659 2020-09-23 10:14:27 expired
eln-build-22955803-2133890 2020-09-22 23:12:14 expired
eln-build-22955796-2133890 2020-09-22 23:11:52 expired
eln-build-22955792-2133890 2020-09-22 23:11:34 expired
eln-build-22953615-2133435 2020-09-22 21:07:39 expired
eln-build-22941896-2129671 2020-09-22 08:11:09 expired
eln-build-22941814-2129671 2020-09-22 08:09:57 expired
eln-build-22933656-2127789 2020-09-21 20:30:40 expired
eln-build-22931448-2125975 2020-09-21 15:30:33 expired
eln-build-22930888-2125702 2020-09-21 14:31:32 expired
eln-build-22930791-2125026 2020-09-21 14:23:52 expired
eln-build-22930768-2125026 2020-09-21 14:19:41 expired
eln-build-22930731-2125026 2020-09-21 14:11:18 expired
eln-build-22925658-2122882 2020-09-21 05:55:05 expired